createdAt,value
2018-02-10T00:00:11.520Z,2.1
2018-02-10T00:01:11.500Z,2.18
2018-02-10T00:02:11.491Z,2.25
2018-02-10T00:03:11.727Z,2.21
2018-02-10T00:04:11.716Z,2.25
2018-02-10T00:05:11.442Z,2.28
2018-02-10T00:06:11.678Z,2.25
2018-02-10T00:07:11.665Z,2.21
2018-02-10T00:08:11.398Z,2.23
2018-02-10T00:09:11.377Z,2.36
2018-02-10T00:10:11.612Z,2.35
2018-02-10T00:11:11.611Z,2.28
2018-02-10T00:12:11.581Z,2.24
2018-02-10T00:13:11.567Z,2.38
2018-02-10T00:14:11.554Z,2.34
2018-02-10T00:15:11.286Z,2.39
2018-02-10T00:16:11.015Z,2.41
2018-02-10T00:17:11.516Z,2.35
2018-02-10T00:18:11.243Z,2.39
2018-02-10T00:19:11.475Z,2.35
2018-02-10T00:20:11.205Z,2.38
2018-02-10T00:21:11.441Z,2.41
2018-02-10T00:22:11.440Z,2.38
2018-02-10T00:23:10.905Z,2.38
2018-02-10T00:24:11.398Z,2.41
2018-02-10T00:25:11.130Z,2.36
2018-02-10T00:26:11.364Z,2.27
2018-02-10T00:27:11.352Z,2.34
2018-02-10T00:28:11.337Z,2.38
2018-02-10T00:29:11.070Z,2.41
2018-02-10T00:30:11.056Z,2.43
2018-02-10T00:31:11.285Z,2.38
2018-02-10T00:32:11.020Z,2.41
2018-02-10T00:33:11.254Z,2.46
2018-02-10T00:34:11.247Z,2.46
2018-02-10T00:35:11.228Z,2.52
2018-02-10T00:36:11.209Z,2.38
2018-02-10T00:37:11.212Z,2.52
2018-02-10T00:38:10.935Z,2.41
2018-02-10T00:39:11.168Z,2.38
2018-02-10T00:40:10.895Z,2.41
2018-02-10T00:41:11.135Z,2.39
2018-02-10T00:42:10.871Z,2.41
2018-02-10T00:43:11.100Z,2.39
2018-02-10T00:44:11.087Z,2.45
2018-02-10T00:45:11.071Z,2.39
2018-02-10T00:46:11.060Z,2.35
2018-02-10T00:47:10.794Z,2.38
2018-02-10T00:48:11.025Z,2.41
2018-02-10T00:49:10.753Z,2.41
2018-02-10T00:50:11.008Z,2.36
2018-02-10T00:51:10.734Z,2.41
2018-02-10T00:52:10.723Z,2.38
2018-02-10T00:53:10.703Z,2.39
2018-02-10T00:54:10.932Z,2.41
2018-02-10T00:55:10.667Z,2.41
2018-02-10T00:56:10.393Z,2.36
2018-02-10T00:57:10.636Z,2.38
2018-02-10T00:58:10.622Z,2.38
2018-02-10T00:59:10.857Z,2.41
2018-02-10T01:00:10.333Z,2.35
2018-02-10T01:01:10.581Z,2.35
2018-02-10T01:02:10.553Z,2.36
2018-02-10T01:03:10.797Z,2.41
2018-02-10T01:04:10.779Z,2.38
2018-02-10T01:05:10.762Z,2.27
2018-02-10T01:06:10.551Z,2.39
2018-02-10T01:07:10.733Z,2.3
2018-02-10T01:08:10.461Z,2.39
2018-02-10T01:09:10.450Z,2.45
2018-02-10T01:10:10.686Z,2.38
2018-02-10T01:11:10.669Z,2.41
2018-02-10T01:12:10.405Z,2.36
2018-02-10T01:13:10.392Z,2.43
2018-02-10T01:14:10.372Z,2.35
2018-02-10T01:15:10.605Z,2.35
2018-02-10T01:16:10.339Z,2.45
2018-02-10T01:17:10.578Z,2.38
2018-02-10T01:18:10.310Z,2.35
2018-02-10T01:19:10.291Z,2.38
2018-02-10T01:20:10.278Z,2.39
2018-02-10T01:21:10.260Z,2.41
2018-02-10T01:22:10.510Z,2.38
2018-02-10T01:23:10.480Z,2.36
2018-02-10T01:24:10.474Z,2.39
2018-02-10T01:25:10.453Z,2.28
2018-02-10T01:26:10.195Z,2.39
2018-02-10T01:27:10.170Z,2.45
2018-02-10T01:28:10.405Z,2.39
2018-02-10T01:29:10.134Z,2.41
2018-02-10T01:30:10.121Z,2.41
2018-02-10T01:31:10.362Z,2.45
2018-02-10T01:32:10.088Z,2.42
2018-02-10T01:33:10.333Z,2.36
2018-02-10T01:34:10.317Z,2.38
2018-02-10T01:35:10.298Z,2.35
2018-02-10T01:36:10.025Z,2.25
2018-02-10T01:37:10.267Z,2.34
2018-02-10T01:38:10.263Z,2.38
2018-02-10T01:39:10.232Z,2.34
2018-02-10T01:40:10.220Z,2.34
2018-02-10T01:41:10.206Z,2.3
2018-02-10T01:42:09.934Z,2.28
2018-02-10T01:43:09.919Z,2.31
2018-02-10T01:44:10.155Z,2.39
2018-02-10T01:45:10.146Z,2.41
2018-02-10T01:46:09.869Z,2.36
2018-02-10T01:47:09.858Z,2.31
2018-02-10T01:48:10.112Z,2.31
2018-02-10T01:49:09.827Z,2.35
2018-02-10T01:50:09.812Z,2.35
2018-02-10T01:51:09.795Z,2.35
2018-02-10T01:52:10.034Z,2.36
2018-02-10T01:53:10.016Z,2.36
2018-02-10T01:54:10.257Z,2.3
2018-02-10T01:55:09.732Z,2.35
2018-02-10T01:56:09.720Z,2.34
2018-02-10T01:57:09.951Z,2.28
2018-02-10T01:58:09.941Z,2.27
2018-02-10T01:59:09.668Z,2.18
2018-02-10T02:00:09.904Z,2.36
2018-02-10T02:01:09.699Z,2.18
2018-02-10T02:02:09.878Z,2.2
2018-02-10T02:03:09.866Z,2.27
2018-02-10T02:04:09.845Z,2.25
2018-02-10T02:05:09.575Z,2.36
2018-02-10T02:06:09.560Z,2.38
2018-02-10T02:07:09.545Z,2.39
2018-02-10T02:08:09.527Z,2.38
2018-02-10T02:09:09.775Z,2.34
2018-02-10T02:10:09.499Z,2.21
2018-02-10T02:11:09.481Z,2.2
2018-02-10T02:12:09.720Z,2.28
2018-02-10T02:13:09.449Z,2.25
2018-02-10T02:14:09.693Z,2.24
2018-02-10T02:15:09.676Z,2.3
2018-02-10T02:16:09.152Z,2.28
2018-02-10T02:17:09.642Z,2.35
2018-02-10T02:18:09.622Z,2.24
2018-02-10T02:19:09.611Z,2.23
2018-02-10T02:20:09.635Z,2.34
2018-02-10T02:21:09.324Z,2.3
2018-02-10T02:22:09.055Z,2.27
2018-02-10T02:23:09.296Z,2.39
2018-02-10T02:24:09.285Z,2.35
2018-02-10T02:25:09.513Z,2.31
2018-02-10T02:26:09.509Z,2.31
2018-02-10T02:27:09.484Z,2.2
2018-02-10T02:28:09.482Z,2.24
2018-02-10T02:29:09.200Z,2.27
2018-02-10T02:30:09.444Z,2.31
2018-02-10T02:31:09.173Z,2.36
2018-02-10T02:32:09.424Z,2.3
2018-02-10T02:33:09.393Z,2.31
2018-02-10T02:34:09.377Z,2.2
2018-02-10T02:35:08.853Z,2.3
2018-02-10T02:36:09.089Z,2.24
2018-02-10T02:37:09.366Z,2.24
2018-02-10T02:38:09.324Z,2.28
2018-02-10T02:39:09.300Z,2.16
2018-02-10T02:40:09.291Z,2.12
2018-02-10T02:41:09.273Z,2.25
2018-02-10T02:42:08.997Z,2.09
2018-02-10T02:43:09.236Z,2.16
2018-02-10T02:44:09.221Z,2.14
2018-02-10T02:45:08.958Z,2.09
2018-02-10T02:46:08.938Z,2.09
2018-02-10T02:47:08.923Z,2.14
2018-02-10T02:48:09.160Z,2.07
2018-02-10T02:49:08.893Z,2.16
2018-02-10T02:50:08.887Z,2.12
2018-02-10T02:51:09.111Z,2.12
2018-02-10T02:52:09.105Z,2.06
2018-02-10T02:53:08.826Z,2.07
2018-02-10T02:54:09.076Z,2.06
2018-02-10T02:55:08.796Z,2.07
2018-02-10T02:56:09.282Z,2.14
2018-02-10T02:57:09.026Z,2.07
2018-02-10T02:58:09.005Z,2.06
2018-02-10T02:59:08.994Z,2.06
2018-02-10T03:00:08.968Z,2.06
2018-02-10T03:01:08.957Z,2.03
2018-02-10T03:02:08.941Z,1.9
2018-02-10T03:03:08.923Z,1.9
2018-02-10T03:04:08.655Z,1.91
2018-02-10T03:05:08.892Z,1.93
2018-02-10T03:06:08.874Z,1.95
2018-02-10T03:07:08.606Z,1.9
2018-02-10T03:08:08.844Z,1.87
2018-02-10T03:09:08.320Z,1.9
2018-02-10T03:10:08.559Z,1.91
2018-02-10T03:11:08.542Z,2.06
2018-02-10T03:12:08.528Z,2.09
2018-02-10T03:13:08.761Z,2.09
2018-02-10T03:14:08.493Z,2.05
2018-02-10T03:15:08.734Z,2.06
2018-02-10T03:16:08.461Z,2.03
2018-02-10T03:17:08.449Z,1.98
2018-02-10T03:18:08.683Z,2
2018-02-10T03:19:08.666Z,1.9
2018-02-10T03:20:08.147Z,2
2018-02-10T03:21:08.638Z,1.87
2018-02-10T03:22:08.365Z,1.93
2018-02-10T03:23:08.609Z,1.93
2018-02-10T03:24:08.590Z,1.87
2018-02-10T03:25:08.321Z,1.98
2018-02-10T03:26:08.305Z,1.87
2018-02-10T03:27:08.807Z,1.91
2018-02-10T03:28:08.277Z,1.93
2018-02-10T03:29:08.507Z,1.91
2018-02-10T03:30:08.246Z,1.9
2018-02-10T03:31:08.496Z,1.86
2018-02-10T03:32:08.465Z,1.84
2018-02-10T03:33:08.446Z,1.86
2018-02-10T03:34:08.174Z,1.8
2018-02-10T03:35:08.416Z,1.83
2018-02-10T03:36:08.151Z,1.79
2018-02-10T03:37:08.133Z,1.83
2018-02-10T03:38:08.374Z,1.81
2018-02-10T03:39:08.100Z,1.81
2018-02-10T03:40:08.082Z,1.79
2018-02-10T03:41:08.315Z,1.83
2018-02-10T03:42:07.797Z,1.81
2018-02-10T03:43:08.036Z,1.77
2018-02-10T03:44:08.270Z,1.8
2018-02-10T03:45:07.749Z,1.8
2018-02-10T03:46:07.733Z,1.79
2018-02-10T03:47:07.974Z,1.8
2018-02-10T03:48:07.955Z,1.81
2018-02-10T03:49:07.940Z,1.77
2018-02-10T03:50:07.920Z,1.77
2018-02-10T03:51:08.162Z,1.76
2018-02-10T03:52:07.896Z,1.79
2018-02-10T03:53:07.876Z,1.81
2018-02-10T03:54:08.112Z,1.86
2018-02-10T03:55:07.853Z,1.9
2018-02-10T03:56:08.082Z,1.86
2018-02-10T03:57:07.813Z,1.83
2018-02-10T03:58:08.049Z,1.77
2018-02-10T03:59:08.030Z,1.81
2018-02-10T04:00:07.768Z,1.76
2018-02-10T04:01:07.749Z,1.73
2018-02-10T04:02:07.732Z,1.76
2018-02-10T04:03:07.969Z,1.76
2018-02-10T04:04:07.446Z,1.83
2018-02-10T04:05:07.685Z,1.87
2018-02-10T04:06:07.678Z,1.73
2018-02-10T04:07:07.907Z,1.77
2018-02-10T04:08:07.635Z,1.84
2018-02-10T04:09:07.369Z,1.83
2018-02-10T04:10:07.853Z,1.76
2018-02-10T04:11:07.590Z,1.81
2018-02-10T04:12:07.570Z,1.76
2018-02-10T04:13:07.302Z,1.73
2018-02-10T04:14:07.795Z,1.84
2018-02-10T04:15:07.525Z,1.7
2018-02-10T04:16:07.766Z,1.79
2018-02-10T04:17:07.746Z,1.77
2018-02-10T04:18:07.483Z,1.77
2018-02-10T04:19:07.766Z,1.69
2018-02-10T04:20:07.705Z,1.68
2018-02-10T04:21:07.434Z,1.65
2018-02-10T04:22:07.666Z,1.69
2018-02-10T04:23:07.648Z,1.76
2018-02-10T04:24:07.640Z,1.72
2018-02-10T04:25:07.367Z,1.79
2018-02-10T04:26:07.602Z,1.77
2018-02-10T04:27:07.589Z,1.72
2018-02-10T04:28:07.317Z,1.79
2018-02-10T04:29:07.301Z,1.72
2018-02-10T04:30:07.281Z,1.73
2018-02-10T04:31:07.523Z,1.69
2018-02-10T04:32:07.251Z,1.8
2018-02-10T04:33:07.490Z,1.72
2018-02-10T04:34:07.475Z,1.81
2018-02-10T04:35:07.207Z,1.79
2018-02-10T04:36:07.193Z,1.73
2018-02-10T04:37:07.437Z,1.79
2018-02-10T04:38:07.411Z,1.79
2018-02-10T04:39:07.400Z,1.81
2018-02-10T04:40:07.122Z,1.79
2018-02-10T04:41:07.365Z,1.76
2018-02-10T04:42:07.093Z,1.77
2018-02-10T04:43:07.081Z,1.79
2018-02-10T04:44:07.062Z,1.79
2018-02-10T04:45:07.301Z,1.79
2018-02-10T04:46:07.029Z,1.8
2018-02-10T04:47:07.014Z,1.83
2018-02-10T04:48:07.249Z,1.76
2018-02-10T04:49:07.237Z,1.83
2018-02-10T04:50:07.222Z,1.81
2018-02-10T04:51:06.948Z,1.86
2018-02-10T04:52:06.931Z,1.9
2018-02-10T04:53:07.169Z,1.87
2018-02-10T04:54:06.901Z,1.91
2018-02-10T04:55:06.886Z,1.93
2018-02-10T04:56:06.618Z,1.91
2018-02-10T04:57:07.107Z,1.88
2018-02-10T04:58:06.839Z,1.84
2018-02-10T04:59:06.829Z,1.9
2018-02-10T05:00:07.071Z,1.88
2018-02-10T05:01:07.291Z,1.93
2018-02-10T05:02:07.027Z,1.9
2018-02-10T05:03:07.015Z,1.95
2018-02-10T05:04:07.003Z,1.9
2018-02-10T05:05:06.990Z,1.98
2018-02-10T05:06:07.264Z,1.91
2018-02-10T05:07:06.959Z,2
2018-02-10T05:08:06.677Z,2.05
2018-02-10T05:09:06.916Z,2.07
2018-02-10T05:10:06.649Z,2.12
2018-02-10T05:11:06.631Z,2.07
2018-02-10T05:12:06.617Z,2.12
2018-02-10T05:13:06.347Z,2.07
2018-02-10T05:14:06.837Z,2.05
2018-02-10T05:15:06.825Z,2.07
2018-02-10T05:16:06.808Z,2.07
2018-02-10T05:17:06.796Z,2.05
2018-02-10T05:18:06.775Z,2.06
2018-02-10T05:19:06.758Z,2.16
2018-02-10T05:20:06.742Z,2.14
2018-02-10T05:21:06.728Z,2.1
2018-02-10T05:22:06.709Z,2.23
2018-02-10T05:23:06.695Z,2.21
2018-02-10T05:24:06.423Z,2.16
2018-02-10T05:25:06.678Z,2.18
2018-02-10T05:26:06.653Z,2.12
2018-02-10T05:27:06.636Z,2.07
2018-02-10T05:28:06.618Z,2.16
2018-02-10T05:29:06.601Z,2.16
2018-02-10T05:30:06.331Z,2.12
2018-02-10T05:31:06.565Z,2.21
2018-02-10T05:32:06.549Z,2.14
2018-02-10T05:33:06.286Z,2.24
2018-02-10T05:34:06.522Z,2.2
2018-02-10T05:35:06.511Z,2.1
2018-02-10T05:36:06.496Z,2.14
2018-02-10T05:37:06.476Z,2.14
2018-02-10T05:38:06.467Z,2.23
2018-02-10T05:39:06.740Z,2.1
2018-02-10T05:40:06.442Z,2.16
2018-02-10T05:41:06.427Z,2.1
2018-02-10T05:42:06.141Z,2.2
2018-02-10T05:43:06.126Z,2.18
2018-02-10T05:44:06.392Z,2.18
2018-02-10T05:45:06.359Z,2.2
2018-02-10T05:46:06.341Z,2.24
2018-02-10T05:47:06.064Z,2.24
2018-02-10T05:48:06.304Z,2.27
2018-02-10T05:49:06.300Z,2.2
2018-02-10T05:50:05.767Z,2.1
2018-02-10T05:51:06.268Z,2.21
2018-02-10T05:52:06.246Z,2.16
2018-02-10T05:53:05.971Z,2.1
2018-02-10T05:54:06.262Z,2.14
2018-02-10T05:55:06.196Z,2.17
2018-02-10T05:56:06.175Z,2.1
2018-02-10T05:57:05.908Z,2.12
2018-02-10T05:58:06.149Z,2.07
2018-02-10T05:59:06.129Z,2.06
2018-02-10T06:00:06.119Z,2.09
2018-02-10T06:01:05.854Z,2.07
2018-02-10T06:02:06.088Z,2.05
2018-02-10T06:03:06.321Z,2.03
2018-02-10T06:04:06.067Z,2.02
2018-02-10T06:05:06.042Z,2.1
2018-02-10T06:06:06.022Z,2.12
2018-02-10T06:07:05.755Z,2.05
2018-02-10T06:08:05.994Z,2.03
2018-02-10T06:09:05.978Z,2.07
2018-02-10T06:10:05.711Z,2.03
2018-02-10T06:11:05.941Z,2.07
2018-02-10T06:12:05.928Z,2.16
2018-02-10T06:13:05.661Z,2.16
2018-02-10T06:14:05.897Z,2.14
2018-02-10T06:15:05.632Z,2.1
2018-02-10T06:16:05.867Z,2.23
2018-02-10T06:17:05.597Z,2.18
2018-02-10T06:18:05.840Z,2.23
2018-02-10T06:19:05.319Z,2.27
2018-02-10T06:20:05.803Z,2.23
2018-02-10T06:21:05.789Z,2.28
2018-02-10T06:22:05.516Z,2.23
2018-02-10T06:23:05.505Z,2.24
2018-02-10T06:24:05.742Z,2.18
2018-02-10T06:25:05.475Z,2.28
2018-02-10T06:26:05.453Z,2.23
2018-02-10T06:27:05.703Z,2.2
2018-02-10T06:28:05.427Z,2.27
2018-02-10T06:29:05.664Z,2.21
2018-02-10T06:30:05.398Z,2.23
2018-02-10T06:31:05.636Z,2.31
2018-02-10T06:32:05.616Z,2.2
2018-02-10T06:33:05.601Z,2.17
2018-02-10T06:34:05.926Z,2.23
2018-02-10T06:35:05.570Z,2.41
2018-02-10T06:36:05.299Z,2.39
2018-02-10T06:37:05.289Z,2.34
2018-02-10T06:38:05.526Z,2.3
2018-02-10T06:39:05.257Z,2.35
2018-02-10T06:40:05.238Z,2.28
2018-02-10T06:41:05.472Z,2.34
2018-02-10T06:42:05.214Z,2.38
2018-02-10T06:43:05.446Z,2.41
2018-02-10T06:44:05.432Z,2.39
2018-02-10T06:45:05.172Z,2.38
2018-02-10T06:46:05.428Z,2.36
2018-02-10T06:47:05.390Z,2.36
2018-02-10T06:48:05.368Z,2.41
2018-02-10T06:49:05.355Z,2.42
2018-02-10T06:50:04.829Z,2.38
2018-02-10T06:51:04.817Z,2.43
2018-02-10T06:52:05.302Z,2.39
2018-02-10T06:53:05.036Z,2.3
2018-02-10T06:54:05.276Z,2.36
2018-02-10T06:55:05.006Z,2.39
2018-02-10T06:56:04.987Z,2.25
2018-02-10T06:57:05.224Z,2.35
2018-02-10T06:58:04.957Z,2.39
2018-02-10T06:59:05.446Z,2.36
2018-02-10T07:00:04.956Z,2.36
2018-02-10T07:01:05.177Z,2.36
2018-02-10T07:02:05.149Z,2.41
2018-02-10T07:03:04.883Z,2.48
2018-02-10T07:04:04.864Z,2.38
2018-02-10T07:05:05.356Z,2.46
2018-02-10T07:06:05.085Z,2.48
2018-02-10T07:07:05.079Z,2.59
2018-02-10T07:08:04.804Z,2.61
2018-02-10T07:09:05.043Z,2.59
2018-02-10T07:10:04.778Z,2.6
2018-02-10T07:11:05.016Z,2.6
2018-02-10T07:12:04.738Z,2.53
2018-02-10T07:13:04.727Z,2.52
2018-02-10T07:14:04.966Z,2.57
2018-02-10T07:15:04.952Z,2.61
2018-02-10T07:16:04.676Z,2.59
2018-02-10T07:17:04.921Z,2.61
2018-02-10T07:18:04.901Z,2.67
2018-02-10T07:19:04.686Z,2.61
2018-02-10T07:20:04.874Z,2.69
2018-02-10T07:21:04.600Z,2.66
2018-02-10T07:22:04.838Z,2.67
2018-02-10T07:23:04.824Z,2.67
2018-02-10T07:24:04.818Z,2.69
2018-02-10T07:25:04.799Z,2.69
2018-02-10T07:26:04.781Z,2.67
2018-02-10T07:27:04.770Z,2.81
2018-02-10T07:28:04.503Z,2.84
2018-02-10T07:29:04.743Z,2.82
2018-02-10T07:30:04.719Z,2.84
2018-02-10T07:31:04.700Z,2.97
2018-02-10T07:32:04.694Z,2.96
2018-02-10T07:33:04.670Z,2.96
2018-02-10T07:34:04.657Z,2.99
2018-02-10T07:35:04.648Z,3.05
2018-02-10T07:36:04.875Z,3
2018-02-10T07:37:04.359Z,3.1
2018-02-10T07:38:04.599Z,3.1
2018-02-10T07:39:04.586Z,3.11
2018-02-10T07:40:04.314Z,3.15
2018-02-10T07:41:04.561Z,3.1
2018-02-10T07:42:04.532Z,3.08
2018-02-10T07:43:04.266Z,3.08
2018-02-10T07:44:04.257Z,3.08
2018-02-10T07:45:04.243Z,3.29
2018-02-10T07:46:04.475Z,3.33
2018-02-10T07:47:04.463Z,3.28
2018-02-10T07:48:04.449Z,3.42
2018-02-10T07:49:04.181Z,3.28
2018-02-10T07:50:04.174Z,3.31
2018-02-10T07:51:04.154Z,3.32
2018-02-10T07:52:04.386Z,3.33
2018-02-10T07:53:04.463Z,3.35
2018-02-10T07:54:04.101Z,3.36
2018-02-10T07:55:04.354Z,3.33
2018-02-10T07:56:04.076Z,3.48
2018-02-10T07:57:04.314Z,3.35
2018-02-10T07:58:04.296Z,3.36
2018-02-10T07:59:04.280Z,3.39
2018-02-10T08:00:04.265Z,3.47
2018-02-10T08:01:04.002Z,3.45
2018-02-10T08:02:03.988Z,3.54
2018-02-10T08:03:04.226Z,3.57
2018-02-10T08:04:04.215Z,3.58
2018-02-10T08:05:04.224Z,3.55
2018-02-10T08:06:03.927Z,3.68
2018-02-10T08:07:04.418Z,3.66
2018-02-10T08:08:04.153Z,3.65
2018-02-10T08:09:04.136Z,3.57
2018-02-10T08:10:04.122Z,3.57
2018-02-10T08:11:04.104Z,3.61
2018-02-10T08:12:04.125Z,3.69
2018-02-10T08:13:03.823Z,3.65
2018-02-10T08:14:03.808Z,3.69
2018-02-10T08:15:04.053Z,3.72
2018-02-10T08:16:04.032Z,3.75
2018-02-10T08:17:04.021Z,3.75
2018-02-10T08:18:04.001Z,3.76
2018-02-10T08:19:03.481Z,3.84
2018-02-10T08:20:03.974Z,3.84
2018-02-10T08:21:03.706Z,3.78
2018-02-10T08:22:03.947Z,3.86
2018-02-10T08:23:03.676Z,3.91
2018-02-10T08:24:03.916Z,3.93
2018-02-10T08:25:03.682Z,3.9
2018-02-10T08:26:03.903Z,3.93
2018-02-10T08:27:03.868Z,3.91
2018-02-10T08:28:03.867Z,3.93
2018-02-10T08:29:03.593Z,3.9
2018-02-10T08:30:03.574Z,3.9
2018-02-10T08:31:03.862Z,3.91
2018-02-10T08:32:03.803Z,3.94
2018-02-10T08:33:03.532Z,3.96
2018-02-10T08:34:03.515Z,3.94
2018-02-10T08:35:03.753Z,3.87
2018-02-10T08:36:03.744Z,3.97
2018-02-10T08:37:03.733Z,4.05
2018-02-10T08:38:03.721Z,3.97
2018-02-10T08:39:03.696Z,3.97
2018-02-10T08:40:03.684Z,3.91
2018-02-10T08:41:03.434Z,3.98
2018-02-10T08:42:03.400Z,3.93
2018-02-10T08:43:03.638Z,3.96
2018-02-10T08:44:03.625Z,3.96
2018-02-10T08:45:03.364Z,3.93
2018-02-10T08:46:03.615Z,3.96
2018-02-10T08:47:03.613Z,3.96
2018-02-10T08:48:03.567Z,4.04
2018-02-10T08:49:03.552Z,3.96
2018-02-10T08:50:03.545Z,3.94
2018-02-10T08:51:03.279Z,3.93
2018-02-10T08:52:03.512Z,3.9
2018-02-10T08:53:03.241Z,3.98
2018-02-10T08:54:03.231Z,3.91
2018-02-10T08:55:03.217Z,3.96
2018-02-10T08:56:03.452Z,3.97
2018-02-10T08:57:03.191Z,3.94
2018-02-10T08:58:03.173Z,3.98
2018-02-10T08:59:03.157Z,4.02
2018-02-10T09:00:03.396Z,4.08
2018-02-10T09:01:03.131Z,4.08
2018-02-10T09:02:03.125Z,4.06
2018-02-10T09:03:03.354Z,4.05
2018-02-10T09:04:02.834Z,4.04
2018-02-10T09:05:03.073Z,3.96
2018-02-10T09:06:03.314Z,3.91
2018-02-10T09:07:03.311Z,3.97
2018-02-10T09:08:03.283Z,3.97
2018-02-10T09:09:03.013Z,3.91
2018-02-10T09:10:03.042Z,3.97
2018-02-10T09:11:02.990Z,3.96
2018-02-10T09:12:02.972Z,3.93
2018-02-10T09:13:02.962Z,3.93
2018-02-10T09:14:02.942Z,3.9
2018-02-10T09:15:02.971Z,4.02
2018-02-10T09:16:02.916Z,4
2018-02-10T09:17:02.905Z,3.98
2018-02-10T09:18:03.142Z,3.93
2018-02-10T09:19:03.129Z,3.88
2018-02-10T09:20:03.112Z,3.86
2018-02-10T09:21:03.103Z,3.9
2018-02-10T09:22:02.830Z,3.84
2018-02-10T09:23:02.820Z,3.88
2018-02-10T09:24:02.803Z,3.84
2018-02-10T09:25:02.794Z,3.91
2018-02-10T09:26:03.033Z,3.83
2018-02-10T09:27:03.016Z,3.87
2018-02-10T09:28:02.492Z,3.9
2018-02-10T09:29:02.983Z,3.9
2018-02-10T09:30:02.719Z,3.96
2018-02-10T09:31:02.960Z,3.94
2018-02-10T09:32:02.953Z,4.04
2018-02-10T09:33:02.927Z,4.15
2018-02-10T09:34:02.660Z,4.11
2018-02-10T09:35:02.898Z,4.16
2018-02-10T09:36:02.633Z,4.15
2018-02-10T09:37:02.617Z,4.15
2018-02-10T09:38:02.864Z,4.23
2018-02-10T09:39:02.844Z,4.24
2018-02-10T09:40:02.828Z,4.29
2018-02-10T09:41:02.814Z,4.33
2018-02-10T09:42:02.549Z,4.41
2018-02-10T09:43:02.783Z,4.36
2018-02-10T09:44:02.776Z,4.51
2018-02-10T09:45:02.787Z,4.48
2018-02-10T09:46:02.490Z,4.54
2018-02-10T09:47:02.744Z,4.51
2018-02-10T09:48:02.463Z,4.55
2018-02-10T09:49:02.451Z,4.55
2018-02-10T09:50:02.691Z,4.6
2018-02-10T09:51:02.686Z,4.6
2018-02-10T09:52:02.663Z,4.59
2018-02-10T09:53:02.390Z,4.66
2018-02-10T09:54:02.627Z,4.6
2018-02-10T09:55:02.366Z,4.6
2018-02-10T09:56:02.620Z,4.66
2018-02-10T09:57:02.334Z,4.7
2018-02-10T09:58:02.592Z,4.66
2018-02-10T09:59:02.570Z,4.59
2018-02-10T10:00:02.619Z,4.58
2018-02-10T10:01:02.542Z,4.62
2018-02-10T10:02:02.525Z,4.59
2018-02-10T10:03:02.519Z,4.65
2018-02-10T10:04:02.241Z,4.6
2018-02-10T10:05:01.975Z,4.82
2018-02-10T10:06:02.484Z,4.7
2018-02-10T10:07:02.465Z,4.69
2018-02-10T10:08:02.449Z,4.78
2018-02-10T10:09:02.174Z,4.77
2018-02-10T10:10:02.159Z,4.96
2018-02-10T10:11:02.145Z,4.96
2018-02-10T10:12:02.397Z,4.96
2018-02-10T10:13:02.389Z,4.96
2018-02-10T10:14:02.106Z,5.1
2018-02-10T10:15:02.345Z,5.04
2018-02-10T10:16:02.078Z,5.06
2018-02-10T10:17:02.568Z,5.1
2018-02-10T10:18:02.305Z,5.1
2018-02-10T10:19:02.295Z,5.03
2018-02-10T10:20:02.273Z,5.17
2018-02-10T10:21:02.012Z,5.04
2018-02-10T10:22:02.247Z,5.15
2018-02-10T10:23:02.233Z,5.12
2018-02-10T10:24:01.975Z,5.21
2018-02-10T10:25:02.224Z,5.27
2018-02-10T10:26:02.197Z,5.35
2018-02-10T10:27:01.684Z,5.28
2018-02-10T10:28:02.172Z,5.38
2018-02-10T10:29:02.160Z,5.42
2018-02-10T10:30:02.140Z,5.43
2018-02-10T10:31:02.131Z,5.48
2018-02-10T10:32:01.865Z,5.39
2018-02-10T10:33:02.104Z,5.48
2018-02-10T10:34:01.838Z,5.46
2018-02-10T10:35:02.132Z,5.45
2018-02-10T10:36:02.076Z,5.53
2018-02-10T10:37:01.800Z,5.63
2018-02-10T10:38:01.784Z,5.6
2018-02-10T10:39:02.088Z,5.67
2018-02-10T10:40:01.767Z,5.65
2018-02-10T10:41:02.005Z,5.75
2018-02-10T10:42:02.014Z,5.93
2018-02-10T10:43:01.973Z,5.89
2018-02-10T10:44:01.708Z,5.9
2018-02-10T10:45:01.959Z,5.96
2018-02-10T10:46:01.996Z,6
2018-02-10T10:47:01.678Z,6.01
2018-02-10T10:48:01.916Z,6.03
2018-02-10T10:49:01.901Z,6.14
2018-02-10T10:50:01.886Z,6.06
2018-02-10T10:51:01.879Z,6.11
2018-02-10T10:52:01.868Z,6.19
2018-02-10T10:53:01.599Z,6.25
2018-02-10T10:54:01.838Z,6.31
2018-02-10T10:55:01.824Z,6.33
2018-02-10T10:56:01.307Z,6.22
2018-02-10T10:57:01.871Z,6.25
2018-02-10T10:58:01.790Z,6.28
2018-02-10T10:59:01.774Z,6.25
2018-02-10T11:00:01.767Z,6.28
2018-02-10T11:01:01.505Z,6.18
2018-02-10T11:02:01.743Z,6.22
2018-02-10T11:03:01.726Z,6.15
2018-02-10T11:04:01.726Z,6.21
2018-02-10T11:05:01.701Z,6.25
2018-02-10T11:06:01.439Z,6.17
2018-02-10T11:07:01.680Z,6.21
2018-02-10T11:08:01.664Z,6.11
2018-02-10T11:09:01.656Z,6.17
2018-02-10T11:10:01.635Z,6.12
2018-02-10T11:11:01.631Z,6.08
2018-02-10T11:12:01.617Z,6.11
2018-02-10T11:13:01.600Z,6.09
2018-02-10T11:14:01.585Z,6.01
2018-02-10T11:15:01.076Z,6
2018-02-10T11:16:01.312Z,5.96
2018-02-10T11:17:01.304Z,5.97
2018-02-10T11:18:01.546Z,5.9
2018-02-10T11:19:01.531Z,5.91
2018-02-10T11:20:01.515Z,5.9
2018-02-10T11:21:01.506Z,5.86
2018-02-10T11:22:01.242Z,5.93
2018-02-10T11:23:01.478Z,5.91
2018-02-10T11:24:01.460Z,5.83
2018-02-10T11:25:01.199Z,5.93
2018-02-10T11:26:01.449Z,5.82
2018-02-10T11:27:01.436Z,5.9
2018-02-10T11:28:01.414Z,5.94
2018-02-10T11:29:01.408Z,5.89
2018-02-10T11:30:01.400Z,5.91
2018-02-10T11:31:01.374Z,5.93
2018-02-10T11:32:01.112Z,5.97
2018-02-10T11:33:01.354Z,5.97
2018-02-10T11:34:01.342Z,6.04
2018-02-10T11:35:01.333Z,6.06
2018-02-10T11:36:01.317Z,6.03
2018-02-10T11:37:01.299Z,6.14
2018-02-10T11:38:01.293Z,6.09
2018-02-10T11:39:01.276Z,6.17
2018-02-10T11:40:01.341Z,6.28
2018-02-10T11:41:00.998Z,6.21
2018-02-10T11:42:01.242Z,6.36
2018-02-10T11:43:01.293Z,6.34
2018-02-10T11:44:00.961Z,6.34
2018-02-10T11:45:01.450Z,6.36
2018-02-10T11:46:01.194Z,6.4
2018-02-10T11:47:01.184Z,6.33
2018-02-10T11:48:01.171Z,6.38
2018-02-10T11:49:00.904Z,6.36
2018-02-10T11:50:00.883Z,6.38
2018-02-10T11:51:01.124Z,6.41
2018-02-10T11:52:01.119Z,6.51
2018-02-10T11:53:01.103Z,6.51
2018-02-10T11:54:00.838Z,6.54
2018-02-10T11:55:00.824Z,6.49
2018-02-10T11:56:00.830Z,6.51
2018-02-10T11:57:01.156Z,6.54
2018-02-10T11:58:01.050Z,6.58
2018-02-10T11:59:01.026Z,6.62
2018-02-10T12:00:01.035Z,6.71
2018-02-10T12:01:00.753Z,6.69
2018-02-10T12:02:00.753Z,6.61
2018-02-10T12:03:00.995Z,6.62
2018-02-10T12:04:00.973Z,6.61
2018-02-10T12:05:00.702Z,6.55
2018-02-10T12:06:00.942Z,6.51
2018-02-10T12:07:00.949Z,6.49
2018-02-10T12:08:01.027Z,6.46
2018-02-10T12:09:00.911Z,6.38
2018-02-10T12:10:00.896Z,6.49
2018-02-10T12:11:00.996Z,6.55
2018-02-10T12:12:00.874Z,6.4
2018-02-10T12:13:00.861Z,6.46
2018-02-10T12:14:00.341Z,6.4
2018-02-10T12:15:00.836Z,6.51
2018-02-10T12:16:01.091Z,6.48
2018-02-10T12:17:00.827Z,6.43
2018-02-10T12:18:00.548Z,6.46
2018-02-10T12:19:00.802Z,6.34
2018-02-10T12:20:00.533Z,6.4
2018-02-10T12:21:00.765Z,6.27
2018-02-10T12:22:00.756Z,6.31
2018-02-10T12:23:00.744Z,6.34
2018-02-10T12:24:00.475Z,6.34
2018-02-10T12:25:00.721Z,6.4
2018-02-10T12:26:00.706Z,6.38
2018-02-10T12:27:00.694Z,6.31
2018-02-10T12:28:00.676Z,6.31
2018-02-10T12:29:00.414Z,6.28
2018-02-10T12:30:00.402Z,6.21
2018-02-10T12:31:00.393Z,6.22
2018-02-10T12:32:00.687Z,6.31
2018-02-10T12:33:00.637Z,6.28
2018-02-10T12:34:00.352Z,6.37
2018-02-10T12:35:00.350Z,6.33
2018-02-10T12:36:00.336Z,6.36
2018-02-10T12:37:00.571Z,6.46
2018-02-10T12:38:00.558Z,6.46
2018-02-10T12:39:00.300Z,6.44
2018-02-10T12:40:00.550Z,6.48
2018-02-10T12:41:00.545Z,6.61
2018-02-10T12:42:00.256Z,6.67
2018-02-10T12:43:00.501Z,6.71
2018-02-10T12:44:00.241Z,6.74
2018-02-10T12:45:00.472Z,6.64
2018-02-10T12:46:00.481Z,6.67
2018-02-10T12:47:00.254Z,6.77
2018-02-10T12:48:00.439Z,6.71
2018-02-10T12:49:00.430Z,6.8
2018-02-10T12:50:00.420Z,6.92
2018-02-10T12:51:00.405Z,6.85
2018-02-10T12:52:00.393Z,6.88
2018-02-10T12:53:00.376Z,6.85
2018-02-10T12:54:00.369Z,6.87
2018-02-10T12:55:00.382Z,6.87
2018-02-10T12:56:00.095Z,6.95
2018-02-10T12:57:00.081Z,6.94
2018-02-10T12:58:00.066Z,6.94
2018-02-10T12:59:00.316Z,7.02
2018-02-10T13:00:00.052Z,6.95
2018-02-10T13:01:00.034Z,6.98
2018-02-10T13:02:00.027Z,6.95
2018-02-10T13:03:00.259Z,6.95
2018-02-10T13:04:00.051Z,6.94
2018-02-10T13:04:59.984Z,6.84
2018-02-10T13:05:59.721Z,6.99
2018-02-10T13:07:00.232Z,6.98
2018-02-10T13:08:00.205Z,6.98
2018-02-10T13:09:00.200Z,7.03
2018-02-10T13:09:59.923Z,7.12
2018-02-10T13:10:59.924Z,7.05
2018-02-10T13:11:59.904Z,7.1
2018-02-10T13:13:00.151Z,7.17
2018-02-10T13:14:00.136Z,7.2
2018-02-10T13:14:59.612Z,7.3
2018-02-10T13:16:00.106Z,7.27
2018-02-10T13:16:59.848Z,7.37
2018-02-10T13:18:00.092Z,7.35
2018-02-10T13:18:59.583Z,7.46
2018-02-10T13:20:00.074Z,7.57
2018-02-10T13:21:00.064Z,7.49